createdAt,value
2018-06-27T00:01:00.893Z,62.41
2018-06-27T00:03:31.728Z,62.70
2018-06-27T00:06:01.997Z,63.61
2018-06-27T00:08:32.442Z,63.86
2018-06-27T00:11:03.226Z,64.93
2018-06-27T00:13:33.618Z,64.07
2018-06-27T00:16:03.948Z,64.50
2018-06-27T00:18:34.544Z,65.51
2018-06-27T00:21:05.156Z,64.93
2018-06-27T00:23:36.055Z,66.00
2018-06-27T00:26:06.441Z,65.37
2018-06-27T00:28:36.757Z,65.02
2018-06-27T00:31:07.434Z,65.33
2018-06-27T00:33:37.849Z,67.01
2018-06-27T00:36:08.242Z,66.65
2018-06-27T00:38:38.766Z,70.78
2018-06-27T00:41:09.309Z,71.39
2018-06-27T00:43:39.926Z,73.53
2018-06-27T00:46:10.373Z,69.51
2018-06-27T00:48:40.799Z,68.00
2018-06-27T00:51:11.230Z,67.10
2018-06-27T00:53:47.708Z,68.03
2018-06-27T00:56:18.133Z,66.85
2018-06-27T00:58:48.657Z,67.45
2018-06-27T01:01:19.135Z,67.20
2018-06-27T01:03:50.180Z,68.30
2018-06-27T01:06:20.603Z,67.74
2018-06-27T01:08:50.827Z,68.69
2018-06-27T01:11:21.362Z,67.00
2018-06-27T01:13:52.622Z,67.37
2018-06-27T01:16:23.567Z,66.83
2018-06-27T01:18:54.110Z,68.27
2018-06-27T01:21:25.013Z,68.89
2018-06-27T01:23:55.384Z,67.94
2018-06-27T01:26:26.028Z,67.59
2018-06-27T01:28:56.555Z,67.08
2018-06-27T01:31:26.918Z,66.87
2018-06-27T01:33:57.767Z,66.33
2018-06-27T01:36:28.316Z,66.27
2018-06-27T01:38:59.075Z,66.60
2018-06-27T01:41:29.349Z,66.64
2018-06-27T01:44:00.815Z,66.63
2018-06-27T01:46:31.468Z,66.84
2018-06-27T01:49:01.651Z,66.51
2018-06-27T01:51:32.269Z,66.67
2018-06-27T01:54:03.778Z,68.03
2018-06-27T01:56:34.264Z,67.85
2018-06-27T01:59:04.563Z,67.12
2018-06-27T02:01:34.848Z,67.39
2018-06-27T02:04:06.966Z,67.35
2018-06-27T02:06:37.601Z,67.45
2018-06-27T02:09:10.573Z,67.37
2018-06-27T02:11:41.025Z,67.71
2018-06-27T02:14:11.995Z,67.75
2018-06-27T02:16:42.476Z,70.66
2018-06-27T02:19:12.909Z,71.59
2018-06-27T02:21:43.584Z,72.88
2018-06-27T02:24:14.445Z,74.02
2018-06-27T02:26:45.207Z,75.64
2018-06-27T02:29:15.934Z,73.83
2018-06-27T02:31:46.402Z,72.65
2018-06-27T02:34:17.658Z,73.71
2018-06-27T02:36:47.786Z,74.84
2018-06-27T02:39:18.287Z,73.71
2018-06-27T02:41:48.698Z,71.08
2018-06-27T02:44:20.158Z,71.63
2018-06-27T02:46:50.248Z,70.67
2018-06-27T02:49:20.751Z,68.80
2018-06-27T02:51:51.078Z,70.84
2018-06-27T02:54:21.634Z,70.72
2018-06-27T02:56:51.905Z,72.42
2018-06-27T02:59:22.505Z,74.03
2018-06-27T03:01:53.283Z,72.94
2018-06-27T03:04:24.106Z,74.65
2018-06-27T03:06:54.377Z,76.54
2018-06-27T03:09:24.898Z,76.43
2018-06-27T03:11:55.326Z,77.15
2018-06-27T03:14:26.047Z,77.11
2018-06-27T03:16:56.183Z,76.90
2018-06-27T03:19:26.613Z,76.19
2018-06-27T03:21:56.983Z,76.73
2018-06-27T03:24:28.424Z,75.62
2018-06-27T03:26:58.758Z,74.99
2018-06-27T03:29:29.273Z,72.41
2018-06-27T03:31:59.722Z,71.17
2018-06-27T03:34:31.365Z,70.58
2018-06-27T03:37:02.037Z,69.56
2018-06-27T03:39:32.451Z,68.61
2018-06-27T03:42:02.865Z,69.05
2018-06-27T03:44:34.300Z,68.28
2018-06-27T03:47:04.932Z,68.66
2018-06-27T03:49:34.733Z,69.27
2018-06-27T03:52:04.475Z,68.43
2018-06-27T03:54:35.022Z,67.58
2018-06-27T03:57:04.724Z,68.41
2018-06-27T03:59:34.584Z,67.41
2018-06-27T04:02:04.358Z,69.02
2018-06-27T04:04:34.077Z,68.83
2018-06-27T04:07:03.892Z,68.22
2018-06-27T04:09:33.479Z,69.01
2018-06-27T04:12:03.166Z,69.77
2018-06-27T04:14:33.074Z,70.67
2018-06-27T04:17:03.266Z,70.41
2018-06-27T04:19:33.702Z,70.34
2018-06-27T04:22:04.677Z,70.02
2018-06-27T04:24:36.247Z,69.72
2018-06-27T04:27:06.883Z,70.31
2018-06-27T04:29:37.549Z,70.55
2018-06-27T04:32:07.951Z,69.38
2018-06-27T04:34:39.079Z,69.22
2018-06-27T04:37:09.657Z,67.99
2018-06-27T04:39:40.073Z,67.23
2018-06-27T04:42:09.853Z,67.93
2018-06-27T04:44:39.988Z,67.34
2018-06-27T04:47:09.714Z,66.80
2018-06-27T04:49:39.566Z,66.43
2018-06-27T04:52:09.423Z,67.59
2018-06-27T04:54:39.274Z,70.50
2018-06-27T04:57:09.056Z,71.09
2018-06-27T04:59:38.846Z,72.13
2018-06-27T05:02:08.595Z,73.87
2018-06-27T05:04:38.297Z,72.06
2018-06-27T05:07:08.214Z,70.74
2018-06-27T05:09:37.860Z,69.19
2018-06-27T05:12:07.794Z,68.02
2018-06-27T05:14:37.547Z,66.65
2018-06-27T05:17:07.344Z,66.91
2018-06-27T05:19:42.450Z,66.36
2018-06-27T05:22:13.081Z,64.96
2018-06-27T05:24:43.186Z,69.90
2018-06-27T05:27:12.996Z,69.07
2018-06-27T05:29:42.755Z,67.76
2018-06-27T05:32:12.451Z,66.91
2018-06-27T05:34:42.260Z,66.80
2018-06-27T05:37:11.987Z,67.40
2018-06-27T05:39:41.711Z,67.74
2018-06-27T05:42:11.476Z,67.45
2018-06-27T05:44:41.298Z,67.32
2018-06-27T05:47:11.036Z,66.94
2018-06-27T05:49:40.882Z,66.41
2018-06-27T05:52:10.534Z,68.64
2018-06-27T05:54:40.704Z,70.42
2018-06-27T05:57:11.086Z,69.87
2018-06-27T05:59:41.573Z,68.98
2018-06-27T06:02:12.023Z,68.57
2018-06-27T06:04:42.976Z,69.27
2018-06-27T06:07:13.296Z,67.51
2018-06-27T06:09:43.590Z,67.30
2018-06-27T06:12:14.034Z,68.28
2018-06-27T06:14:44.690Z,68.79
2018-06-27T06:17:15.173Z,68.12
2018-06-27T06:19:45.628Z,66.74
2018-06-27T06:22:16.230Z,68.00
2018-06-27T06:24:47.376Z,67.99
2018-06-27T06:27:17.905Z,65.70
2018-06-27T06:29:48.336Z,66.37
2018-06-27T06:32:19.004Z,68.43
2018-06-27T06:34:50.119Z,69.78
2018-06-27T06:37:20.396Z,65.97
2018-06-27T06:39:51.002Z,66.85
2018-06-27T06:42:21.474Z,67.32
2018-06-27T06:44:52.821Z,65.84
2018-06-27T06:47:22.926Z,63.03
2018-06-27T06:49:53.397Z,60.77
2018-06-27T06:52:23.598Z,58.67
2018-06-27T06:54:53.968Z,59.13
2018-06-27T06:57:24.454Z,61.77
2018-06-27T06:59:54.654Z,60.25
2018-06-27T07:02:24.839Z,59.42
2018-06-27T07:04:56.284Z,58.96
2018-06-27T07:07:26.686Z,56.96
2018-06-27T07:09:57.250Z,56.11
2018-06-27T07:12:27.613Z,56.58
2018-06-27T07:14:58.549Z,59.32
2018-06-27T07:17:29.210Z,59.86
2018-06-27T07:19:58.946Z,58.46
2018-06-27T07:22:29.127Z,56.18
2018-06-27T07:24:59.119Z,59.03
2018-06-27T07:27:29.013Z,55.93
2018-06-27T07:29:58.852Z,55.80
2018-06-27T07:32:28.679Z,55.33
2018-06-27T07:34:58.937Z,52.67
2018-06-27T07:37:29.202Z,56.55
2018-06-27T07:39:59.652Z,54.71
2018-06-27T07:42:30.107Z,51.50
2018-06-27T07:45:00.831Z,51.45
2018-06-27T07:47:30.636Z,50.07
2018-06-27T07:50:00.488Z,51.29
2018-06-27T07:52:30.405Z,49.73
2018-06-27T07:55:00.115Z,47.19
2018-06-27T07:57:29.904Z,48.59
2018-06-27T07:59:59.659Z,44.40
2018-06-27T08:02:29.544Z,41.53
2018-06-27T08:04:59.406Z,42.02
2018-06-27T08:07:29.258Z,41.38
2018-06-27T08:09:59.045Z,43.29
2018-06-27T08:12:28.941Z,42.76
2018-06-27T08:14:58.707Z,43.55
2018-06-27T08:17:28.572Z,46.11
2018-06-27T08:19:58.197Z,43.99
2018-06-27T08:22:28.006Z,43.13
2018-06-27T08:24:58.195Z,44.92
2018-06-27T08:27:28.011Z,44.17
2018-06-27T08:29:57.782Z,44.47
2018-06-27T08:32:27.572Z,42.57
2018-06-27T08:34:57.200Z,40.74
2018-06-27T08:37:26.839Z,41.99
2018-06-27T08:39:56.739Z,39.98
2018-06-27T08:42:26.486Z,43.61
2018-06-27T08:44:56.294Z,41.34
2018-06-27T08:47:26.154Z,42.56
2018-06-27T08:49:55.913Z,42.37
2018-06-27T08:52:25.793Z,41.44
2018-06-27T08:54:55.617Z,42.72
2018-06-27T08:57:25.467Z,41.84
2018-06-27T08:59:55.422Z,41.22
2018-06-27T09:02:25.315Z,43.12
2018-06-27T09:04:55.172Z,41.94
2018-06-27T09:07:24.992Z,41.82
2018-06-27T09:09:54.854Z,39.95
2018-06-27T09:12:24.560Z,41.65
2018-06-27T09:14:54.375Z,39.55
2018-06-27T09:17:24.239Z,40.37
2018-06-27T09:19:54.160Z,42.20
2018-06-27T09:22:23.954Z,40.72
2018-06-27T09:24:53.822Z,39.37
2018-06-27T09:27:24.219Z,40.37
2018-06-27T09:30:57.011Z,42.17
2018-06-27T09:33:26.860Z,40.30
2018-06-27T09:35:56.667Z,41.28
2018-06-27T09:38:26.525Z,41.29
2018-06-27T09:40:56.338Z,39.63
2018-06-27T09:43:26.183Z,40.21
2018-06-27T09:45:56.118Z,40.61
2018-06-27T09:48:25.918Z,40.96
2018-06-27T09:50:55.778Z,40.17
2018-06-27T09:53:25.573Z,42.01
2018-06-27T09:55:55.484Z,42.74
2018-06-27T09:58:25.288Z,41.94
2018-06-27T10:00:55.174Z,43.44
2018-06-27T10:03:24.982Z,42.21
2018-06-27T10:05:54.788Z,42.39
2018-06-27T10:08:24.535Z,43.55
2018-06-27T10:10:54.436Z,44.28
2018-06-27T10:13:24.134Z,44.52
2018-06-27T10:15:53.985Z,42.84
2018-06-27T10:18:23.665Z,44.03
2018-06-27T10:20:53.663Z,45.31
2018-06-27T10:23:23.634Z,45.18
2018-06-27T10:25:53.452Z,43.90
2018-06-27T10:28:23.661Z,45.91
2018-06-27T10:30:53.590Z,44.95
2018-06-27T10:33:23.536Z,45.23
2018-06-27T10:35:53.341Z,46.97
2018-06-27T10:38:23.207Z,45.89
2018-06-27T10:40:53.129Z,47.90
2018-06-27T10:43:23.045Z,45.71
2018-06-27T10:45:52.869Z,46.47
2018-06-27T10:48:22.793Z,45.93
2018-06-27T10:50:52.846Z,47.99
2018-06-27T10:53:22.709Z,47.73
2018-06-27T10:55:52.676Z,46.03
2018-06-27T10:58:22.600Z,46.18
2018-06-27T11:00:52.493Z,47.72
2018-06-27T11:03:22.444Z,46.55
2018-06-27T11:11:32.376Z,43.54
2018-06-27T11:14:02.217Z,42.61
2018-06-27T11:16:32.272Z,42.89
2018-06-27T11:19:02.195Z,40.72
2018-06-27T11:21:33.292Z,41.52
2018-06-27T11:24:03.050Z,41.08
2018-06-27T11:26:32.796Z,40.38
2018-06-27T11:29:03.240Z,40.00
2018-06-27T11:31:34.084Z,40.84
2018-06-27T11:34:03.855Z,40.71
2018-06-27T11:36:33.881Z,41.03
2018-06-27T11:39:04.083Z,41.80
2018-06-27T11:41:34.701Z,43.11
2018-06-27T11:44:04.556Z,44.31
2018-06-27T11:46:34.507Z,44.73
2018-06-27T11:49:06.479Z,46.93
2018-06-27T11:51:37.142Z,48.25
2018-06-27T11:54:07.010Z,48.13
2018-06-27T11:56:36.971Z,49.44
2018-06-27T11:59:06.949Z,51.16
2018-06-27T12:01:37.665Z,50.14
2018-06-27T12:04:07.590Z,55.08
2018-06-27T12:06:38.049Z,55.69
2018-06-27T12:09:10.863Z,54.76
2018-06-27T12:11:40.856Z,57.76
2018-06-27T12:14:10.688Z,57.59
2018-06-27T12:16:40.563Z,55.42
2018-06-27T12:19:10.340Z,58.33
2018-06-27T12:21:40.205Z,61.27
2018-06-27T12:24:33.010Z,62.52
2018-06-27T12:27:02.818Z,62.20
2018-06-27T12:29:32.755Z,62.89
2018-06-27T12:32:03.807Z,61.50
2018-06-27T12:34:33.715Z,61.54
2018-06-27T12:37:03.688Z,60.77
2018-06-27T12:39:34.525Z,63.38
2018-06-27T12:42:04.254Z,62.66
2018-06-27T12:44:34.093Z,60.33
2018-06-27T12:47:04.088Z,57.26
2018-06-27T12:49:35.726Z,59.74
2018-06-27T12:52:05.660Z,59.70
2018-06-27T12:54:35.564Z,57.86
2018-06-27T12:57:05.399Z,59.19
2018-06-27T12:59:35.140Z,57.42
2018-06-27T13:02:05.123Z,56.90
2018-06-27T13:04:34.864Z,58.60
2018-06-27T13:07:04.814Z,59.71
2018-06-27T13:09:34.681Z,58.80
2018-06-27T13:12:04.632Z,57.31
2018-06-27T13:14:34.548Z,59.07
2018-06-27T13:17:04.364Z,59.94
2018-06-27T13:19:34.143Z,61.10
2018-06-27T13:22:03.955Z,61.05
2018-06-27T13:24:35.066Z,60.71
2018-06-27T13:27:05.053Z,62.41
2018-06-27T13:29:36.284Z,63.43
2018-06-27T13:32:06.971Z,61.39
2018-06-27T13:34:36.884Z,62.85
2018-06-27T13:37:06.951Z,59.89
2018-06-27T13:39:36.970Z,57.89
2018-06-27T13:42:07.458Z,59.15
2018-06-27T13:44:37.294Z,59.07
2018-06-27T13:47:07.087Z,59.80
2018-06-27T13:49:36.930Z,58.60
2018-06-27T13:52:06.782Z,59.05
2018-06-27T13:54:36.649Z,59.25
2018-06-27T13:57:06.532Z,60.27
2018-06-27T13:59:36.436Z,59.56
2018-06-27T14:02:06.360Z,59.63
2018-06-27T14:04:36.236Z,58.18
2018-06-27T14:07:05.958Z,57.16
2018-06-27T14:09:35.599Z,58.02
2018-06-27T14:12:05.496Z,58.06
2018-06-27T14:14:35.243Z,58.51
2018-06-27T14:17:05.087Z,57.70
2018-06-27T14:19:35.017Z,56.77
2018-06-27T14:22:05.467Z,56.71
2018-06-27T14:24:40.109Z,56.01
2018-06-27T14:27:10.022Z,55.76
2018-06-27T14:29:40.376Z,54.91
2018-06-27T14:32:10.410Z,56.83
2018-06-27T14:34:40.279Z,55.50
2018-06-27T14:37:10.158Z,55.71
2018-06-27T14:39:39.974Z,56.39
2018-06-27T14:42:09.885Z,57.15
2018-06-27T14:44:39.883Z,56.05
2018-06-27T14:47:09.804Z,55.57
2018-06-27T14:49:40.183Z,55.76
2018-06-27T14:52:10.519Z,56.74
2018-06-27T14:54:40.433Z,56.61
2018-06-27T14:57:10.263Z,57.02
2018-06-27T14:59:40.180Z,55.97
2018-06-27T15:02:10.159Z,56.18
2018-06-27T15:04:39.995Z,55.11
2018-06-27T15:07:09.820Z,54.28
2018-06-27T15:09:39.601Z,54.32
2018-06-27T15:12:10.689Z,56.47
2018-06-27T15:14:40.675Z,57.42
2018-06-27T15:17:10.472Z,58.35
2018-06-27T15:19:40.371Z,58.25
2018-06-27T15:22:10.293Z,58.68
2018-06-27T15:24:40.098Z,57.55
2018-06-27T15:27:10.021Z,57.10
2018-06-27T15:29:39.741Z,56.36
2018-06-27T15:32:10.114Z,58.02
2018-06-27T15:34:39.978Z,56.14
2018-06-27T15:37:09.812Z,58.50
2018-06-27T15:39:39.650Z,59.06
2018-06-27T15:42:10.012Z,60.63
2018-06-27T15:44:39.883Z,62.64
2018-06-27T15:47:09.552Z,63.72
2018-06-27T15:49:39.276Z,62.95
2018-06-27T15:52:09.115Z,62.01
2018-06-27T15:54:39.526Z,60.12
2018-06-27T15:57:09.387Z,61.31
2018-06-27T15:59:41.905Z,62.74
2018-06-27T16:02:12.881Z,62.83
2018-06-27T16:04:43.502Z,63.70
2018-06-27T16:07:13.316Z,63.85
2018-06-27T16:09:43.152Z,63.48
2018-06-27T16:12:14.125Z,62.73
2018-06-27T16:14:44.090Z,61.92
2018-06-27T16:17:14.043Z,60.64
2018-06-27T16:19:43.965Z,62.95
2018-06-27T16:22:14.250Z,62.59
2018-06-27T16:24:43.984Z,61.44
2018-06-27T16:27:13.807Z,63.63
2018-06-27T16:29:43.512Z,62.75
2018-06-27T16:32:13.754Z,62.86
2018-06-27T16:34:43.590Z,62.38
2018-06-27T16:37:13.534Z,66.20
2018-06-27T16:39:43.294Z,65.00
2018-06-27T16:42:13.174Z,65.35
2018-06-27T16:44:43.225Z,65.09
2018-06-27T16:47:13.564Z,63.36
2018-06-27T16:49:43.323Z,64.16
2018-06-27T16:52:13.907Z,63.09
2018-06-27T16:54:43.721Z,64.92
2018-06-27T16:57:13.499Z,66.15
2018-06-27T16:59:43.522Z,66.29
2018-06-27T17:02:13.288Z,65.34
2018-06-27T17:04:43.151Z,62.93
2018-06-27T17:07:12.999Z,65.61
2018-06-27T17:09:42.839Z,65.94
2018-06-27T17:12:12.558Z,67.16
2018-06-27T17:14:42.513Z,67.16
2018-06-27T17:17:12.341Z,67.76
2018-06-27T17:19:42.312Z,69.04
2018-06-27T17:22:12.266Z,70.30
2018-06-27T17:24:41.931Z,70.66
2018-06-27T17:27:11.735Z,69.79
2018-06-27T17:29:41.630Z,71.12
2018-06-27T17:32:11.562Z,70.79
2018-06-27T17:34:41.617Z,70.42
2018-06-27T17:37:11.515Z,70.13
2018-06-27T17:39:41.619Z,68.26
2018-06-27T17:42:11.436Z,68.70
2018-06-27T17:44:41.383Z,69.56
2018-06-27T17:47:11.129Z,67.59
2018-06-27T17:49:40.921Z,67.38
2018-06-27T17:52:10.817Z,67.87
2018-06-27T17:54:40.582Z,68.05
2018-06-27T17:57:10.450Z,66.86
2018-06-27T17:59:40.151Z,66.63
2018-06-27T18:02:10.042Z,66.64
2018-06-27T18:04:39.849Z,65.97
2018-06-27T18:07:09.840Z,65.97
2018-06-27T18:09:39.610Z,66.37
2018-06-27T18:12:09.529Z,66.27
2018-06-27T18:14:39.440Z,66.80
2018-06-27T18:17:09.381Z,66.37
2018-06-27T18:19:39.126Z,65.64
2018-06-27T18:22:08.822Z,65.13
2018-06-27T18:24:38.626Z,64.73
2018-06-27T18:27:08.555Z,65.00
2018-06-27T18:29:38.319Z,65.24
2018-06-27T18:32:08.253Z,66.15
2018-06-27T18:34:38.100Z,66.14
2018-06-27T18:37:08.444Z,66.12
2018-06-27T18:39:38.289Z,65.76
2018-06-27T18:42:07.908Z,66.04
2018-06-27T18:44:37.730Z,67.44
2018-06-27T18:47:07.705Z,66.11
2018-06-27T18:49:37.456Z,68.01
2018-06-27T18:52:07.396Z,67.54
2018-06-27T18:54:37.234Z,69.78
2018-06-27T18:57:07.227Z,67.09
2018-06-27T18:59:37.059Z,66.28
2018-06-27T19:02:06.975Z,70.36
2018-06-27T19:04:36.719Z,69.55
2018-06-27T19:07:06.860Z,68.17
2018-06-27T19:09:36.595Z,69.90
2018-06-27T19:12:06.427Z,70.91
2018-06-27T19:14:36.311Z,69.34
2018-06-27T19:17:05.945Z,67.42
2018-06-27T19:19:35.934Z,67.44
2018-06-27T19:22:05.902Z,68.70
2018-06-27T19:24:35.723Z,69.24
2018-06-27T19:27:05.743Z,69.69
2018-06-27T19:29:35.521Z,69.26
2018-06-27T19:32:05.387Z,68.66
2018-06-27T19:34:35.200Z,67.82
2018-06-27T19:37:05.065Z,67.92
2018-06-27T19:39:37.897Z,68.25
2018-06-27T19:42:05.400Z,70.28
2018-06-27T19:44:36.110Z,70.17
2018-06-27T19:47:05.993Z,70.43
2018-06-27T19:49:35.759Z,72.82
2018-06-27T19:52:06.255Z,70.88
2018-06-27T19:54:36.038Z,70.36
2018-06-27T19:57:05.969Z,72.45
2018-06-27T19:59:35.824Z,73.06
2018-06-27T20:02:05.710Z,74.57
2018-06-27T20:04:35.612Z,72.80
2018-06-27T20:07:05.394Z,70.43
2018-06-27T20:09:35.202Z,69.21
2018-06-27T20:12:05.139Z,68.86
2018-06-27T20:14:34.977Z,70.34
2018-06-27T20:17:04.711Z,68.13
2018-06-27T20:19:34.532Z,68.24
2018-06-27T20:22:04.533Z,70.86
2018-06-27T20:24:34.166Z,69.38
2018-06-27T20:27:04.115Z,70.32
2018-06-27T20:29:33.946Z,68.51
2018-06-27T20:32:05.629Z,71.62
2018-06-27T20:34:35.475Z,70.38
2018-06-27T20:37:05.511Z,70.47
2018-06-27T20:39:36.369Z,70.41
2018-06-27T20:42:08.423Z,71.95
2018-06-27T20:44:38.305Z,71.25
2018-06-27T20:47:08.143Z,70.60
2018-06-27T20:49:37.942Z,70.82
2018-06-27T20:52:08.500Z,70.81
2018-06-27T20:54:38.297Z,70.68
2018-06-27T20:57:08.125Z,70.38
2018-06-27T20:59:37.984Z,70.21
2018-06-27T21:02:07.780Z,68.64
2018-06-27T21:04:37.608Z,67.44
2018-06-27T21:07:07.771Z,67.09
2018-06-27T21:09:37.490Z,66.98
2018-06-27T21:12:07.289Z,68.13
2018-06-27T21:14:37.148Z,69.04
2018-06-27T21:17:07.076Z,68.44
2018-06-27T21:19:36.972Z,67.82
2018-06-27T21:22:06.853Z,67.29
2018-06-27T21:24:36.642Z,69.05
2018-06-27T21:27:06.677Z,68.31
2018-06-27T21:29:36.336Z,68.84
2018-06-27T21:32:06.335Z,71.45
2018-06-27T21:34:36.111Z,71.53
2018-06-27T21:37:05.848Z,69.85
2018-06-27T21:39:35.672Z,69.57
2018-06-27T21:42:05.439Z,71.53
2018-06-27T21:44:35.419Z,69.58
2018-06-27T21:47:05.261Z,69.99
2018-06-27T21:49:34.945Z,69.48
2018-06-27T21:52:04.815Z,69.67
2018-06-27T21:54:34.469Z,70.38
2018-06-27T21:57:04.320Z,70.16
2018-06-27T21:59:33.994Z,72.16
2018-06-27T22:02:04.231Z,73.30
2018-06-27T22:04:34.059Z,74.05
2018-06-27T22:07:03.852Z,73.99
2018-06-27T22:09:33.661Z,74.55
2018-06-27T22:12:03.273Z,73.41
2018-06-27T22:14:33.069Z,70.72
2018-06-27T22:17:02.849Z,69.69
2018-06-27T22:19:32.726Z,71.29
2018-06-27T22:22:02.406Z,73.80
2018-06-27T22:24:32.196Z,72.82
2018-06-27T22:27:01.956Z,72.32
2018-06-27T22:29:31.811Z,71.65
2018-06-27T22:32:01.634Z,72.59
2018-06-27T22:34:31.382Z,70.60
2018-06-27T22:37:01.091Z,70.93
2018-06-27T22:39:30.906Z,71.21
2018-06-27T22:42:00.597Z,70.03
2018-06-27T22:44:30.458Z,70.57
2018-06-27T22:47:00.314Z,70.23
2018-06-27T22:49:30.078Z,69.26
2018-06-27T22:51:59.826Z,71.36
2018-06-27T22:54:29.651Z,69.92
2018-06-27T22:56:59.565Z,69.89
2018-06-27T22:59:29.386Z,71.72
2018-06-27T23:01:59.251Z,71.90
2018-06-27T23:04:29.039Z,70.73
2018-06-27T23:06:58.747Z,70.64
2018-06-27T23:09:28.551Z,70.69
2018-06-27T23:11:58.286Z,69.29
2018-06-27T23:14:27.957Z,71.44
2018-06-27T23:16:57.699Z,69.89
2018-06-27T23:19:27.627Z,70.88
2018-06-27T23:21:57.341Z,70.06
2018-06-27T23:24:27.098Z,69.24
2018-06-27T23:26:56.809Z,70.70
2018-06-27T23:29:26.611Z,71.97
2018-06-27T23:31:56.386Z,69.86
2018-06-27T23:34:26.226Z,73.87
2018-06-27T23:36:56.047Z,75.20
2018-06-27T23:39:25.787Z,76.31
2018-06-27T23:41:55.520Z,76.39
2018-06-27T23:44:25.339Z,76.18
2018-06-27T23:46:55.018Z,75.86
2018-06-27T23:49:25.107Z,78.14
2018-06-27T23:51:54.846Z,77.71
2018-06-27T23:54:24.634Z,75.74
2018-06-27T23:56:54.261Z,75.09
2018-06-27T23:59:24.058Z,78.08
